createdAt,value
2023-01-17T00:02:22.970Z,3.60
2023-01-17T00:05:08.897Z,3.60
2023-01-17T00:07:55.102Z,3.50
2023-01-17T00:10:24.575Z,3.50
2023-01-17T00:12:57.555Z,3.40
2023-01-17T00:15:26.562Z,3.40
2023-01-17T00:17:53.969Z,3.40
2023-01-17T00:20:46.684Z,3.30
2023-01-17T00:23:37.745Z,3.30
2023-01-17T00:26:10.133Z,3.30
2023-01-17T00:28:39.569Z,3.20
2023-01-17T00:31:08.740Z,3.20
2023-01-17T00:33:36.471Z,3.20
2023-01-17T00:36:04.884Z,3.20
2023-01-17T00:38:34.052Z,3.30
2023-01-17T00:41:03.601Z,3.30
2023-01-17T00:43:50.313Z,3.30
2023-01-17T00:46:37.253Z,3.30
2023-01-17T00:49:23.508Z,3.30
2023-01-17T00:52:09.728Z,3.40
2023-01-17T00:54:55.984Z,3.40
2023-01-17T00:57:41.719Z,3.40
2023-01-17T01:00:28.789Z,3.40
2023-01-17T01:03:14.599Z,3.50
2023-01-17T01:06:00.399Z,3.50
2023-01-17T01:08:48.706Z,3.60
2023-01-17T01:11:37.862Z,3.40
2023-01-17T01:14:25.071Z,3.30
2023-01-17T01:17:11.187Z,3.30
2023-01-17T01:19:57.283Z,3.20
2023-01-17T01:22:43.084Z,3.20
2023-01-17T01:25:29.413Z,3.20
2023-01-17T01:28:26.182Z,3.10
2023-01-17T01:31:12.057Z,3.20
2023-01-17T01:33:39.486Z,3.10
2023-01-17T01:36:08.713Z,3.20
2023-01-17T01:38:36.577Z,3.10
2023-01-17T01:41:04.649Z,3.10
2023-01-17T01:43:46.036Z,3.10
2023-01-17T01:46:21.899Z,3.10
2023-01-17T01:48:54.907Z,3.10
2023-01-17T01:51:39.853Z,3.10
2023-01-17T01:54:11.083Z,3.10
2023-01-17T01:56:39.176Z,3.10
2023-01-17T01:59:11.310Z,3.00
2023-01-17T02:01:38.854Z,3.00
2023-01-17T02:04:10.903Z,2.90
2023-01-17T02:06:51.652Z,2.90
2023-01-17T02:09:19.997Z,2.90
2023-01-17T02:11:49.183Z,2.90
2023-01-17T02:14:18.113Z,2.90
2023-01-17T02:17:12.648Z,2.90
2023-01-17T02:19:54.366Z,2.90
2023-01-17T02:22:48.712Z,2.90
2023-01-17T02:25:48.181Z,2.90
2023-01-17T02:28:47.506Z,2.90
2023-01-17T02:31:25.260Z,2.80
2023-01-17T02:34:22.071Z,2.80
2023-01-17T02:36:52.941Z,2.70
2023-01-17T02:39:23.360Z,2.80
2023-01-17T02:42:06.236Z,2.70
2023-01-17T02:44:43.568Z,2.60
2023-01-17T02:47:28.894Z,2.60
2023-01-17T02:50:04.991Z,2.60
2023-01-17T02:52:50.753Z,2.60
2023-01-17T02:55:26.899Z,2.60
2023-01-17T02:58:09.331Z,2.60
2023-01-17T03:01:09.580Z,2.50
2023-01-17T03:03:47.973Z,2.60
2023-01-17T03:06:21.364Z,2.60
2023-01-17T03:08:51.366Z,2.40
2023-01-17T03:11:21.191Z,2.30
2023-01-17T03:13:57.127Z,2.20
2023-01-17T03:16:29.031Z,2.20
2023-01-17T03:19:05.563Z,2.10
2023-01-17T03:21:32.943Z,2.00
2023-01-17T03:24:00.408Z,1.80
2023-01-17T03:26:27.904Z,1.80
2023-01-17T03:28:55.311Z,1.80
2023-01-17T03:31:24.314Z,1.80
2023-01-17T03:33:51.692Z,1.80
2023-01-17T03:36:20.288Z,1.80
2023-01-17T03:38:47.832Z,1.80
2023-01-17T03:41:15.285Z,1.80
2023-01-17T03:43:44.342Z,1.80
2023-01-17T03:46:28.903Z,1.90
2023-01-17T03:48:56.237Z,2.00
2023-01-17T03:51:24.435Z,2.00
2023-01-17T03:53:54.737Z,2.10
2023-01-17T03:56:23.858Z,2.10
2023-01-17T03:58:55.955Z,2.10
2023-01-17T04:01:25.780Z,2.10
2023-01-17T04:03:53.804Z,2.10
2023-01-17T04:06:21.356Z,2.00
2023-01-17T04:08:50.245Z,2.00
2023-01-17T04:11:18.659Z,2.00
2023-01-17T04:13:46.478Z,2.00
2023-01-17T04:16:18.293Z,2.00
2023-01-17T04:18:48.754Z,1.90
2023-01-17T04:21:17.843Z,1.70
2023-01-17T04:23:45.104Z,1.60
2023-01-17T04:26:12.743Z,1.40
2023-01-17T04:28:40.025Z,1.20
2023-01-17T04:31:08.914Z,1.10
2023-01-17T04:33:37.779Z,1.10
2023-01-17T04:36:06.707Z,1.10
2023-01-17T04:38:38.251Z,1.10
2023-01-17T04:41:08.378Z,1.10
2023-01-17T04:43:36.389Z,1.10
2023-01-17T04:46:05.704Z,1.10
2023-01-17T04:48:34.626Z,1.10
2023-01-17T04:51:03.628Z,1.10
2023-01-17T04:53:31.822Z,1.10
2023-01-17T04:55:59.228Z,1.10
2023-01-17T04:58:27.732Z,1.10
2023-01-17T05:00:55.150Z,1.00
2023-01-17T05:03:23.472Z,0.90
2023-01-17T05:05:50.816Z,0.90
2023-01-17T05:08:18.156Z,0.80
2023-01-17T05:10:46.967Z,0.60
2023-01-17T05:13:14.990Z,0.60
2023-01-17T05:15:42.501Z,0.60
2023-01-17T05:18:14.742Z,0.70
2023-01-17T05:20:42.427Z,0.80
2023-01-17T05:23:10.531Z,0.90
2023-01-17T05:25:38.080Z,0.90
2023-01-17T05:28:05.731Z,0.90
2023-01-17T05:30:33.348Z,0.80
2023-01-17T05:33:00.835Z,0.80
2023-01-17T05:35:32.534Z,1.00
2023-01-17T05:37:59.949Z,1.20
2023-01-17T05:40:32.084Z,1.20
2023-01-17T05:43:01.104Z,1.30
2023-01-17T05:45:30.368Z,1.40
2023-01-17T05:47:58.512Z,1.60
2023-01-17T05:50:29.178Z,1.60
2023-01-17T05:52:58.992Z,1.70
2023-01-17T05:55:27.807Z,1.70
2023-01-17T05:57:56.061Z,1.80
2023-01-17T06:00:24.380Z,1.80
2023-01-17T06:02:56.924Z,1.70
2023-01-17T06:05:25.848Z,1.70
2023-01-17T06:07:53.601Z,1.70
2023-01-17T06:10:22.192Z,1.70
2023-01-17T06:12:50.118Z,1.60
2023-01-17T06:15:18.794Z,1.60
2023-01-17T06:17:46.502Z,1.50
2023-01-17T06:20:13.917Z,1.50
2023-01-17T06:22:41.383Z,1.50
2023-01-17T06:25:09.510Z,1.40
2023-01-17T06:27:37.075Z,1.30
2023-01-17T06:30:05.041Z,1.30
2023-01-17T06:32:32.923Z,1.30
2023-01-17T06:35:00.381Z,1.30
2023-01-17T06:37:27.927Z,1.20
2023-01-17T06:39:58.092Z,1.10
2023-01-17T06:42:28.122Z,0.90
2023-01-17T06:44:55.445Z,0.60
2023-01-17T06:47:23.140Z,0.40
2023-01-17T06:49:50.560Z,0.30
2023-01-17T06:52:17.968Z,0.20
2023-01-17T06:54:45.345Z,0.10
2023-01-17T06:57:12.710Z,0.00
2023-01-17T06:59:40.046Z,-0.10
2023-01-17T07:02:10.513Z,-0.20
2023-01-17T07:04:38.053Z,-0.20
2023-01-17T07:07:05.541Z,0.00
2023-01-17T07:09:32.943Z,0.00
2023-01-17T07:12:01.876Z,0.00
2023-01-17T07:14:29.352Z,0.00
2023-01-17T07:16:57.308Z,0.10
2023-01-17T07:19:25.041Z,0.10
2023-01-17T07:21:53.920Z,0.00
2023-01-17T07:24:22.094Z,-0.20
2023-01-17T07:26:50.460Z,-0.30
2023-01-17T07:29:18.683Z,-0.30
2023-01-17T07:31:48.231Z,-0.30
2023-01-17T07:34:15.952Z,-0.30
2023-01-17T07:36:43.285Z,-0.40
2023-01-17T07:39:10.765Z,-0.50
2023-01-17T07:41:41.301Z,-0.40
2023-01-17T07:44:10.732Z,-0.40
2023-01-17T07:46:38.103Z,-0.30
2023-01-17T07:49:05.493Z,-0.40
2023-01-17T07:51:33.591Z,-0.30
2023-01-17T07:54:00.986Z,-0.20
2023-01-17T07:56:28.492Z,-0.20
2023-01-17T07:58:55.782Z,-0.30
2023-01-17T08:01:23.300Z,-0.30
2023-01-17T08:03:54.858Z,-0.30
2023-01-17T08:06:24.983Z,-0.20
2023-01-17T08:08:55.099Z,-0.20
2023-01-17T08:11:22.535Z,0.00
2023-01-17T08:13:50.749Z,0.10
2023-01-17T08:16:21.088Z,0.30
2023-01-17T08:18:48.528Z,0.30
2023-01-17T08:21:17.192Z,0.30
2023-01-17T08:23:48.998Z,0.20
2023-01-17T08:26:22.180Z,0.30
2023-01-17T08:28:55.767Z,0.40
2023-01-17T08:31:24.600Z,0.40
2023-01-17T08:33:52.389Z,0.40
2023-01-17T08:36:19.869Z,0.50
2023-01-17T08:38:47.527Z,0.50
2023-01-17T08:41:14.951Z,0.50
2023-01-17T08:43:42.428Z,0.70
2023-01-17T08:46:10.151Z,1.00
2023-01-17T08:48:37.792Z,1.30
2023-01-17T08:51:05.781Z,1.40
2023-01-17T08:53:33.461Z,1.50
2023-01-17T08:56:02.664Z,1.60
2023-01-17T08:58:31.527Z,1.80
2023-01-17T09:01:06.532Z,1.90
2023-01-17T09:03:34.656Z,2.10
2023-01-17T09:06:10.014Z,2.20
2023-01-17T09:08:38.327Z,2.60
2023-01-17T09:11:06.999Z,2.80
2023-01-17T09:13:34.429Z,2.70
2023-01-17T09:16:02.539Z,2.70
2023-01-17T09:18:31.396Z,3.00
2023-01-17T09:21:01.917Z,3.40
2023-01-17T09:23:30.465Z,3.60
2023-01-17T09:25:59.372Z,3.80
2023-01-17T09:28:27.486Z,4.60
2023-01-17T09:30:55.147Z,5.70
2023-01-17T09:33:25.533Z,6.70
2023-01-17T09:35:52.839Z,7.90
2023-01-17T09:38:21.767Z,8.70
2023-01-17T09:40:49.409Z,9.80
2023-01-17T09:43:38.034Z,10.80
2023-01-17T09:46:22.433Z,11.50
2023-01-17T09:49:34.754Z,11.60
2023-01-17T09:52:03.125Z,12.40
2023-01-17T09:54:36.112Z,12.40
2023-01-17T09:57:24.591Z,12.70
2023-01-17T10:00:17.035Z,12.30
2023-01-17T10:03:09.423Z,12.60
2023-01-17T10:06:15.172Z,12.90
2023-01-17T10:08:51.673Z,12.60
2023-01-17T10:11:52.807Z,11.60
2023-01-17T10:14:32.942Z,12.20
2023-01-17T10:17:36.364Z,11.20
2023-01-17T10:20:34.180Z,11.50
2023-01-17T10:23:25.175Z,12.00
2023-01-17T10:25:54.580Z,11.80
2023-01-17T10:28:24.973Z,11.70
2023-01-17T10:30:58.200Z,10.10
2023-01-17T10:33:30.008Z,10.80
2023-01-17T10:36:07.682Z,11.20
2023-01-17T10:38:37.777Z,12.00
2023-01-17T10:41:34.703Z,12.10
2023-01-17T10:44:26.557Z,11.70
2023-01-17T10:47:16.907Z,11.90
2023-01-17T10:49:52.904Z,11.90
2023-01-17T10:52:50.679Z,11.50
2023-01-17T10:55:53.344Z,11.90
2023-01-17T10:58:21.248Z,11.10
2023-01-17T11:01:01.919Z,11.80
2023-01-17T11:03:29.460Z,11.40
2023-01-17T11:06:17.044Z,10.90
2023-01-17T11:08:57.448Z,8.80
2023-01-17T11:11:32.120Z,7.30
2023-01-17T11:14:00.948Z,6.40
2023-01-17T11:16:31.366Z,5.80
2023-01-17T11:19:21.237Z,5.50
2023-01-17T11:21:54.382Z,5.30
2023-01-17T11:24:31.880Z,5.00
2023-01-17T11:26:59.563Z,4.80
2023-01-17T11:29:39.039Z,4.70
2023-01-17T11:32:28.821Z,4.70
2023-01-17T11:35:05.499Z,4.60
2023-01-17T11:37:34.433Z,4.50
2023-01-17T11:40:25.448Z,4.60
2023-01-17T11:43:18.452Z,4.60
2023-01-17T11:45:47.586Z,4.80
2023-01-17T11:48:17.326Z,4.80
2023-01-17T11:50:56.249Z,4.90
2023-01-17T11:53:28.570Z,4.90
2023-01-17T11:56:05.159Z,5.00
2023-01-17T11:58:38.484Z,5.00
2023-01-17T12:01:47.908Z,5.00
2023-01-17T12:04:27.210Z,4.90
2023-01-17T12:07:09.633Z,4.90
2023-01-17T12:10:04.676Z,4.90
2023-01-17T12:13:08.225Z,4.90
2023-01-17T12:16:28.955Z,5.10
2023-01-17T12:19:26.065Z,5.10
2023-01-17T12:22:24.267Z,5.10
2023-01-17T12:25:15.341Z,5.00
2023-01-17T12:28:01.026Z,5.00
2023-01-17T12:30:51.313Z,5.10
2023-01-17T12:33:24.499Z,5.10
2023-01-17T12:35:56.371Z,5.10
2023-01-17T12:38:35.666Z,5.00
2023-01-17T12:41:26.713Z,4.90
2023-01-17T12:43:59.476Z,4.90
2023-01-17T12:46:32.532Z,4.80
2023-01-17T12:49:38.447Z,4.70
2023-01-17T12:52:18.673Z,4.60
2023-01-17T12:54:50.085Z,4.60
2023-01-17T12:57:41.914Z,4.50
2023-01-17T13:00:25.354Z,4.40
2023-01-17T13:03:05.705Z,4.40
2023-01-17T13:05:41.697Z,4.40
2023-01-17T13:08:43.837Z,4.30
2023-01-17T13:11:33.444Z,4.30
2023-01-17T13:14:02.101Z,4.20
2023-01-17T13:16:48.682Z,4.10
2023-01-17T13:19:40.417Z,4.10
2023-01-17T13:22:10.473Z,4.10
2023-01-17T13:24:44.550Z,4.10
2023-01-17T13:27:56.029Z,4.10
2023-01-17T13:30:46.431Z,4.10
2023-01-17T13:33:25.670Z,4.20
2023-01-17T13:44:23.874Z,4.10
2023-01-17T13:47:03.513Z,4.10
2023-01-17T13:49:33.316Z,4.20
2023-01-17T13:52:09.823Z,4.30
2023-01-17T13:54:56.276Z,4.40
2023-01-17T13:57:24.556Z,4.40
2023-01-17T13:59:56.742Z,4.40
2023-01-17T14:02:32.886Z,4.30
2023-01-17T14:05:12.307Z,4.10
2023-01-17T14:08:01.110Z,3.90
2023-01-17T14:10:37.366Z,3.70
2023-01-17T14:13:06.813Z,3.60
2023-01-17T14:15:46.665Z,3.60
2023-01-17T14:18:30.588Z,3.60
2023-01-17T14:21:19.861Z,3.40
2023-01-17T14:23:57.332Z,3.30
2023-01-17T14:26:51.491Z,3.40
2023-01-17T14:29:46.994Z,3.30
2023-01-17T14:32:21.126Z,3.20
2023-01-17T14:34:51.379Z,3.00
2023-01-17T14:37:36.812Z,3.00
2023-01-17T14:40:17.770Z,3.00
2023-01-17T14:42:46.823Z,3.00
2023-01-17T14:45:21.939Z,2.90
2023-01-17T14:47:51.439Z,2.90
2023-01-17T14:50:23.613Z,2.80
2023-01-17T14:53:32.453Z,2.80
2023-01-17T14:56:16.975Z,2.60
2023-01-17T14:58:46.508Z,2.40
2023-01-17T15:01:23.092Z,2.30
2023-01-17T15:03:54.334Z,2.30
2023-01-17T15:06:36.382Z,2.30
2023-01-17T15:09:10.770Z,2.20
2023-01-17T15:11:38.939Z,2.10
2023-01-17T15:14:07.233Z,2.00
2023-01-17T15:16:37.311Z,2.00
2023-01-17T15:19:15.168Z,2.00
2023-01-17T15:21:44.062Z,2.00
2023-01-17T15:24:22.416Z,1.90
2023-01-17T15:26:50.876Z,1.70
2023-01-17T15:29:34.325Z,1.70
2023-01-17T15:32:04.930Z,1.50
2023-01-17T15:34:35.849Z,1.30
2023-01-17T15:37:21.388Z,1.20
2023-01-17T15:39:49.099Z,1.00
2023-01-17T15:42:25.631Z,1.00
2023-01-17T15:44:56.388Z,1.00
2023-01-17T15:47:27.954Z,1.00
2023-01-17T15:49:55.690Z,0.80
2023-01-17T15:52:22.959Z,0.70
2023-01-17T15:55:14.553Z,0.70
2023-01-17T15:57:47.572Z,0.60
2023-01-17T16:00:19.693Z,0.50
2023-01-17T16:02:56.065Z,0.40
2023-01-17T16:05:23.882Z,0.40
2023-01-17T16:08:04.571Z,0.30
2023-01-17T16:10:36.227Z,0.30
2023-01-17T16:13:05.793Z,0.20
2023-01-17T16:15:35.204Z,0.10
2023-01-17T16:18:15.354Z,0.00
2023-01-17T16:20:51.935Z,-0.20
2023-01-17T16:23:19.311Z,-0.20
2023-01-17T16:25:47.932Z,-0.30
2023-01-17T16:28:15.607Z,-0.30
2023-01-17T16:30:44.841Z,-0.20
2023-01-17T16:33:13.487Z,-0.30
2023-01-17T16:35:42.973Z,-0.30
2023-01-17T16:38:13.987Z,-0.40
2023-01-17T16:40:46.194Z,-0.50
2023-01-17T16:43:17.014Z,-0.70
2023-01-17T16:45:47.598Z,-0.70
2023-01-17T16:48:17.713Z,-0.80
2023-01-17T16:50:50.484Z,-0.90
2023-01-17T16:53:24.347Z,-1.00
2023-01-17T16:55:54.898Z,-1.00
2023-01-17T16:58:22.841Z,-1.10
2023-01-17T17:00:50.662Z,-1.00
2023-01-17T17:03:20.057Z,-1.10
2023-01-17T17:05:56.271Z,-1.00
2023-01-17T17:08:24.224Z,-1.00
2023-01-17T17:10:51.789Z,-1.10
2023-01-17T17:13:19.201Z,-1.00
2023-01-17T17:15:49.325Z,-1.00
2023-01-17T17:18:18.142Z,-1.00
2023-01-17T17:20:46.188Z,-1.10
2023-01-17T17:23:13.769Z,-1.20
2023-01-17T17:25:41.106Z,-1.30
2023-01-17T17:28:10.915Z,-1.30
2023-01-17T17:30:38.213Z,-1.30
2023-01-17T17:33:05.506Z,-1.10
2023-01-17T17:35:35.940Z,-1.10
2023-01-17T17:38:05.410Z,-1.10
2023-01-17T17:40:35.959Z,-1.10
2023-01-17T17:43:03.377Z,-1.20
2023-01-17T17:45:30.689Z,-1.10
2023-01-17T17:47:57.964Z,-1.10
2023-01-17T17:50:25.269Z,-1.20
2023-01-17T17:52:52.688Z,-1.30
2023-01-17T17:55:20.007Z,-1.40
2023-01-17T17:57:47.383Z,-1.40
2023-01-17T18:00:14.991Z,-1.40
2023-01-17T18:02:42.483Z,-1.40
2023-01-17T18:05:10.150Z,-1.30
2023-01-17T18:07:37.472Z,-1.40
2023-01-17T18:10:05.407Z,-1.50
2023-01-17T18:12:32.710Z,-1.60
2023-01-17T18:15:00.112Z,-1.70
2023-01-17T18:17:27.429Z,-1.80
2023-01-17T18:19:54.878Z,-1.90
2023-01-17T18:22:22.221Z,-1.90
2023-01-17T18:24:49.522Z,-1.90
2023-01-17T18:27:16.775Z,-1.90
2023-01-17T18:29:44.024Z,-1.90
2023-01-17T18:32:13.157Z,-2.00
2023-01-17T18:34:41.478Z,-2.10
2023-01-17T18:37:08.906Z,-2.20
2023-01-17T18:39:36.222Z,-2.20
2023-01-17T18:42:03.611Z,-2.30
2023-01-17T18:44:30.904Z,-2.30
2023-01-17T18:47:01.868Z,-2.20
2023-01-17T18:49:29.173Z,-2.10
2023-01-17T18:51:56.499Z,-2.00
2023-01-17T18:54:23.782Z,-1.90
2023-01-17T18:56:51.236Z,-1.80
2023-01-17T18:59:18.792Z,-1.90
2023-01-17T19:01:46.671Z,-1.90
2023-01-17T19:04:15.877Z,-1.90
2023-01-17T19:06:46.850Z,-1.90
2023-01-17T19:09:15.567Z,-2.00
2023-01-17T19:11:44.815Z,-2.10
2023-01-17T19:14:12.780Z,-2.20
2023-01-17T19:16:41.912Z,-2.30
2023-01-17T19:19:13.891Z,-2.30
2023-01-17T19:21:41.572Z,-2.20
2023-01-17T19:24:12.976Z,-2.20
2023-01-17T19:26:41.014Z,-2.20
2023-01-17T19:29:08.339Z,-2.20
2023-01-17T19:31:42.735Z,-2.40
2023-01-17T19:34:12.616Z,-2.50
2023-01-17T19:36:40.205Z,-2.50
2023-01-17T19:39:11.855Z,-2.60
2023-01-17T19:41:45.322Z,-2.70
2023-01-17T19:44:14.057Z,-2.90
2023-01-17T19:46:41.465Z,-2.80
2023-01-17T19:49:09.298Z,-2.80
2023-01-17T19:51:36.733Z,-2.70
2023-01-17T19:54:06.372Z,-2.70
2023-01-17T19:56:34.000Z,-2.80
2023-01-17T19:59:02.052Z,-2.80
2023-01-17T20:01:32.251Z,-2.80
2023-01-17T20:04:01.088Z,-2.80
2023-01-17T20:06:31.339Z,-2.90
2023-01-17T20:08:58.716Z,-2.80
2023-01-17T20:11:27.791Z,-2.80
2023-01-17T20:13:57.440Z,-2.70
2023-01-17T20:16:26.997Z,-2.70
2023-01-17T20:18:54.508Z,-2.70
2023-01-17T20:21:27.611Z,-2.80
2023-01-17T20:23:56.780Z,-2.90
2023-01-17T20:26:34.964Z,-3.00
2023-01-17T20:29:07.320Z,-3.10
2023-01-17T20:31:38.115Z,-3.10
2023-01-17T20:34:06.880Z,-3.10
2023-01-17T20:36:34.629Z,-3.10
2023-01-17T20:39:07.018Z,-3.10
2023-01-17T20:41:35.710Z,-3.10
2023-01-17T20:44:05.219Z,-3.10
2023-01-17T20:46:35.766Z,-3.10
2023-01-17T20:49:05.477Z,-3.10
2023-01-17T20:51:38.356Z,-3.10
2023-01-17T20:54:07.115Z,-3.00
2023-01-17T20:56:34.747Z,-2.90
2023-01-17T20:59:03.958Z,-2.80
2023-01-17T21:01:31.969Z,-2.80
2023-01-17T21:03:59.407Z,-2.90
2023-01-17T21:06:26.958Z,-3.00
2023-01-17T21:08:54.249Z,-3.10
2023-01-17T21:11:24.266Z,-3.10
2023-01-17T21:13:52.049Z,-3.30
2023-01-17T21:16:22.926Z,-3.30
2023-01-17T21:18:51.853Z,-3.40
2023-01-17T21:21:25.285Z,-3.40
2023-01-17T21:23:54.929Z,-3.40
2023-01-17T21:26:25.688Z,-3.50
2023-01-17T21:28:54.001Z,-3.50
2023-01-17T21:31:23.738Z,-3.50
2023-01-17T21:34:03.414Z,-3.50
2023-01-17T21:36:33.527Z,-3.50
2023-01-17T21:39:05.474Z,-3.50
2023-01-17T21:41:37.777Z,-3.60
2023-01-17T21:44:16.909Z,-3.50
2023-01-17T21:46:44.310Z,-3.50
2023-01-17T21:49:12.242Z,-3.60
2023-01-17T21:51:52.657Z,-3.60
2023-01-17T21:54:43.792Z,-3.70
2023-01-17T21:57:31.300Z,-3.70
2023-01-17T21:59:58.599Z,-3.70
2023-01-17T22:02:25.979Z,-3.40
2023-01-17T22:04:54.599Z,-3.30
2023-01-17T22:07:22.347Z,-3.30
2023-01-17T22:09:49.603Z,-3.40
2023-01-17T22:12:16.883Z,-3.40
2023-01-17T22:14:44.201Z,-3.50
2023-01-17T22:17:11.460Z,-3.60
2023-01-17T22:19:38.877Z,-3.60
2023-01-17T22:22:06.191Z,-3.60
2023-01-17T22:24:33.475Z,-3.70
2023-01-17T22:27:00.743Z,-3.70
2023-01-17T22:29:28.043Z,-3.60
2023-01-17T22:31:55.712Z,-3.50
2023-01-17T22:34:23.151Z,-3.60
2023-01-17T22:36:50.370Z,-3.60
2023-01-17T22:39:17.614Z,-3.70
2023-01-17T22:41:44.966Z,-3.70
2023-01-17T22:44:12.205Z,-3.50
2023-01-17T22:46:41.314Z,-3.60
2023-01-17T22:49:13.208Z,-3.70
2023-01-17T22:51:40.492Z,-3.80
2023-01-17T22:54:07.810Z,-3.80
2023-01-17T22:56:35.775Z,-3.70
2023-01-17T22:59:03.079Z,-3.80
2023-01-17T23:01:32.917Z,-3.70
2023-01-17T23:04:02.668Z,-3.70
2023-01-17T23:06:32.128Z,-3.80
2023-01-17T23:09:04.180Z,-3.80
2023-01-17T23:11:39.821Z,-3.90
2023-01-17T23:14:23.363Z,-3.90
2023-01-17T23:17:17.833Z,-3.80
2023-01-17T23:19:50.950Z,-3.70
2023-01-17T23:22:27.537Z,-3.60
2023-01-17T23:24:57.235Z,-3.40
2023-01-17T23:28:03.987Z,-3.30
2023-01-17T23:30:35.290Z,-3.20
2023-01-17T23:33:03.530Z,-3.10
2023-01-17T23:35:33.216Z,-3.30
2023-01-17T23:38:19.455Z,-3.40
2023-01-17T23:41:07.083Z,-3.30
2023-01-17T23:43:35.723Z,-3.20
2023-01-17T23:46:04.247Z,-3.20
2023-01-17T23:48:31.787Z,-3.20
2023-01-17T23:51:02.203Z,-3.20
2023-01-17T23:53:29.538Z,-3.40
2023-01-17T23:55:59.585Z,-3.50
2023-01-17T23:58:27.949Z,-3.70
